sensor_id;sensor_type;location;lat;lon;timestamp;temperature;humidity
68378;DHT22;55322;48.146;11.516;2022-08-19T00:01:34;18.13;91.59
68378;DHT22;55322;48.146;11.516;2022-08-19T00:04:02;18.14;91.93
68378;DHT22;55322;48.146;11.516;2022-08-19T00:06:29;18.14;92.04
68378;DHT22;55322;48.146;11.516;2022-08-19T00:08:55;18.14;91.97
68378;DHT22;55322;48.146;11.516;2022-08-19T00:11:21;18.13;91.14
68378;DHT22;55322;48.146;11.516;2022-08-19T00:13:47;18.11;91.28
68378;DHT22;55322;48.146;11.516;2022-08-19T00:16:16;18.17;91.86
68378;DHT22;55322;48.146;11.516;2022-08-19T00:18:46;18.14;92.00
68378;DHT22;55322;48.146;11.516;2022-08-19T00:21:12;18.17;91.96
68378;DHT22;55322;48.146;11.516;2022-08-19T00:23:38;18.18;91.90
68378;DHT22;55322;48.146;11.516;2022-08-19T00:26:04;18.23;91.65
68378;DHT22;55322;48.146;11.516;2022-08-19T00:28:31;18.26;91.16
68378;DHT22;55322;48.146;11.516;2022-08-19T00:30:58;18.20;91.48
68378;DHT22;55322;48.146;11.516;2022-08-19T00:33:23;18.24;91.30
68378;DHT22;55322;48.146;11.516;2022-08-19T00:35:49;18.21;91.32
68378;DHT22;55322;48.146;11.516;2022-08-19T00:38:14;18.24;91.59
68378;DHT22;55322;48.146;11.516;2022-08-19T00:40:42;18.24;91.98
68378;DHT22;55322;48.146;11.516;2022-08-19T00:43:13;18.26;91.65
68378;DHT22;55322;48.146;11.516;2022-08-19T00:45:40;18.23;91.61
68378;DHT22;55322;48.146;11.516;2022-08-19T00:48:09;18.29;91.60
68378;DHT22;55322;48.146;11.516;2022-08-19T00:50:34;18.29;91.38
68378;DHT22;55322;48.146;11.516;2022-08-19T00:53:01;18.27;91.31
68378;DHT22;55322;48.146;11.516;2022-08-19T00:55:30;18.33;91.06
68378;DHT22;55322;48.146;11.516;2022-08-19T00:58:00;18.31;91.31
68378;DHT22;55322;48.146;11.516;2022-08-19T01:00:27;18.27;91.38
68378;DHT22;55322;48.146;11.516;2022-08-19T01:02:53;18.34;91.52
68378;DHT22;55322;48.146;11.516;2022-08-19T01:05:23;18.31;91.72
68378;DHT22;55322;48.146;11.516;2022-08-19T01:07:50;18.34;91.34
68378;DHT22;55322;48.146;11.516;2022-08-19T01:10:18;18.34;91.15
68378;DHT22;55322;48.146;11.516;2022-08-19T01:12:45;18.24;91.13
68378;DHT22;55322;48.146;11.516;2022-08-19T01:15:14;18.30;91.07
68378;DHT22;55322;48.146;11.516;2022-08-19T01:17:42;18.29;90.75
68378;DHT22;55322;48.146;11.516;2022-08-19T01:20:17;18.27;90.93
68378;DHT22;55322;48.146;11.516;2022-08-19T01:25:20;18.18;91.21
68378;DHT22;55322;48.146;11.516;2022-08-19T01:30:18;18.09;91.60
68378;DHT22;55322;48.146;11.516;2022-08-19T01:32:44;18.00;91.81
68378;DHT22;55322;48.146;11.516;2022-08-19T01:35:10;18.04;91.36
68378;DHT22;55322;48.146;11.516;2022-08-19T01:40:09;18.03;91.60
68378;DHT22;55322;48.146;11.516;2022-08-19T01:42:35;18.06;91.30
68378;DHT22;55322;48.146;11.516;2022-08-19T01:45:00;18.09;91.35
68378;DHT22;55322;48.146;11.516;2022-08-19T01:47:26;18.16;91.27
68378;DHT22;55322;48.146;11.516;2022-08-19T01:49:51;18.20;90.92
68378;DHT22;55322;48.146;11.516;2022-08-19T01:52:16;18.21;90.69
68378;DHT22;55322;48.146;11.516;2022-08-19T01:54:42;18.23;90.44
68378;DHT22;55322;48.146;11.516;2022-08-19T01:57:10;18.24;90.70
68378;DHT22;55322;48.146;11.516;2022-08-19T01:59:37;18.23;90.53
68378;DHT22;55322;48.146;11.516;2022-08-19T02:02:05;18.23;90.75
68378;DHT22;55322;48.146;11.516;2022-08-19T02:04:34;18.21;90.76
68378;DHT22;55322;48.146;11.516;2022-08-19T02:07:00;18.20;90.79
68378;DHT22;55322;48.146;11.516;2022-08-19T02:09:25;18.26;90.35
68378;DHT22;55322;48.146;11.516;2022-08-19T02:11:50;18.24;90.48
68378;DHT22;55322;48.146;11.516;2022-08-19T02:14:16;18.24;90.67
68378;DHT22;55322;48.146;11.516;2022-08-19T02:16:41;18.26;90.42
68378;DHT22;55322;48.146;11.516;2022-08-19T02:19:07;18.26;90.16
68378;DHT22;55322;48.146;11.516;2022-08-19T02:21:33;18.18;90.47
68378;DHT22;55322;48.146;11.516;2022-08-19T02:23:58;18.21;90.90
68378;DHT22;55322;48.146;11.516;2022-08-19T02:26:24;18.24;91.02
68378;DHT22;55322;48.146;11.516;2022-08-19T02:28:52;18.30;90.98
68378;DHT22;55322;48.146;11.516;2022-08-19T02:31:19;18.26;90.98
68378;DHT22;55322;48.146;11.516;2022-08-19T02:33:46;18.30;90.31
68378;DHT22;55322;48.146;11.516;2022-08-19T02:36:13;18.23;90.52
68378;DHT22;55322;48.146;11.516;2022-08-19T02:38:39;18.23;90.56
68378;DHT22;55322;48.146;11.516;2022-08-19T02:41:28;18.21;90.62
68378;DHT22;55322;48.146;11.516;2022-08-19T02:43:52;18.18;90.28
68378;DHT22;55322;48.146;11.516;2022-08-19T02:46:20;18.21;90.50
68378;DHT22;55322;48.146;11.516;2022-08-19T02:48:51;18.18;90.62
68378;DHT22;55322;48.146;11.516;2022-08-19T02:51:26;18.17;91.04
68378;DHT22;55322;48.146;11.516;2022-08-19T02:53:52;18.13;91.02
68378;DHT22;55322;48.146;11.516;2022-08-19T02:56:18;18.17;91.35
68378;DHT22;55322;48.146;11.516;2022-08-19T02:58:43;18.16;91.02
68378;DHT22;55322;48.146;11.516;2022-08-19T03:01:10;18.13;91.08
68378;DHT22;55322;48.146;11.516;2022-08-19T03:03:37;18.09;91.48
68378;DHT22;55322;48.146;11.516;2022-08-19T03:06:11;18.11;91.02
68378;DHT22;55322;48.146;11.516;2022-08-19T03:08:38;18.10;90.95
68378;DHT22;55322;48.146;11.516;2022-08-19T03:11:04;18.07;91.24
68378;DHT22;55322;48.146;11.516;2022-08-19T03:13:30;18.07;91.39
68378;DHT22;55322;48.146;11.516;2022-08-19T03:15:55;18.00;91.11
68378;DHT22;55322;48.146;11.516;2022-08-19T03:18:20;18.03;91.09
68378;DHT22;55322;48.146;11.516;2022-08-19T03:20:48;17.97;90.94
68378;DHT22;55322;48.146;11.516;2022-08-19T03:23:14;18.04;91.31
68378;DHT22;55322;48.146;11.516;2022-08-19T03:25:43;18.04;90.91
68378;DHT22;55322;48.146;11.516;2022-08-19T03:28:10;18.11;91.09
68378;DHT22;55322;48.146;11.516;2022-08-19T03:30:37;18.09;90.65
68378;DHT22;55322;48.146;11.516;2022-08-19T03:33:04;18.13;90.65
68378;DHT22;55322;48.146;11.516;2022-08-19T03:35:29;18.17;90.59
68378;DHT22;55322;48.146;11.516;2022-08-19T03:37:55;18.17;89.97
68378;DHT22;55322;48.146;11.516;2022-08-19T03:40:21;18.20;90.66
68378;DHT22;55322;48.146;11.516;2022-08-19T03:42:46;18.21;90.61
68378;DHT22;55322;48.146;11.516;2022-08-19T03:45:12;18.21;90.39
68378;DHT22;55322;48.146;11.516;2022-08-19T03:47:37;18.21;90.48
68378;DHT22;55322;48.146;11.516;2022-08-19T03:50:04;18.21;90.34
68378;DHT22;55322;48.146;11.516;2022-08-19T03:52:30;18.23;90.49
68378;DHT22;55322;48.146;11.516;2022-08-19T03:54:55;18.24;90.54
68378;DHT22;55322;48.146;11.516;2022-08-19T03:57:21;18.29;90.19
68378;DHT22;55322;48.146;11.516;2022-08-19T03:59:46;18.26;89.90
68378;DHT22;55322;48.146;11.516;2022-08-19T04:02:12;18.23;90.31
68378;DHT22;55322;48.146;11.516;2022-08-19T04:04:41;18.20;90.41
68378;DHT22;55322;48.146;11.516;2022-08-19T04:07:09;18.17;90.69
68378;DHT22;55322;48.146;11.516;2022-08-19T04:09:35;18.13;90.85
68378;DHT22;55322;48.146;11.516;2022-08-19T04:12:02;18.13;91.13
68378;DHT22;55322;48.146;11.516;2022-08-19T04:14:30;18.16;90.79
68378;DHT22;55322;48.146;11.516;2022-08-19T04:16:57;18.13;90.93
68378;DHT22;55322;48.146;11.516;2022-08-19T04:19:23;18.17;91.05
68378;DHT22;55322;48.146;11.516;2022-08-19T04:21:52;18.18;90.64
68378;DHT22;55322;48.146;11.516;2022-08-19T04:24:19;18.21;90.72
68378;DHT22;55322;48.146;11.516;2022-08-19T04:26:46;18.09;90.71
68378;DHT22;55322;48.146;11.516;2022-08-19T04:29:17;18.11;91.47
68378;DHT22;55322;48.146;11.516;2022-08-19T04:31:44;18.13;91.11
68378;DHT22;55322;48.146;11.516;2022-08-19T04:34:12;18.13;91.05
68378;DHT22;55322;48.146;11.516;2022-08-19T04:36:39;18.16;91.50
68378;DHT22;55322;48.146;11.516;2022-08-19T04:39:20;18.18;91.37
68378;DHT22;55322;48.146;11.516;2022-08-19T04:41:45;18.20;91.29
68378;DHT22;55322;48.146;11.516;2022-08-19T04:44:34;18.23;91.16
68378;DHT22;55322;48.146;11.516;2022-08-19T04:47:01;18.26;90.92
68378;DHT22;55322;48.146;11.516;2022-08-19T04:49:27;18.24;90.48
68378;DHT22;55322;48.146;11.516;2022-08-19T04:51:53;18.24;90.33
68378;DHT22;55322;48.146;11.516;2022-08-19T04:54:20;18.26;90.02
68378;DHT22;55322;48.146;11.516;2022-08-19T04:56:50;18.24;90.17
68378;DHT22;55322;48.146;11.516;2022-08-19T04:59:17;18.26;90.60
68378;DHT22;55322;48.146;11.516;2022-08-19T05:01:44;18.26;90.34
68378;DHT22;55322;48.146;11.516;2022-08-19T05:04:16;18.23;90.47
68378;DHT22;55322;48.146;11.516;2022-08-19T05:06:42;18.24;90.82
68378;DHT22;55322;48.146;11.516;2022-08-19T05:09:08;18.26;90.40
68378;DHT22;55322;48.146;11.516;2022-08-19T05:11:36;18.26;90.59
68378;DHT22;55322;48.146;11.516;2022-08-19T05:14:03;18.30;90.37
68378;DHT22;55322;48.146;11.516;2022-08-19T05:16:29;18.30;89.86
68378;DHT22;55322;48.146;11.516;2022-08-19T05:18:55;18.30;90.13
68378;DHT22;55322;48.146;11.516;2022-08-19T05:21:40;18.29;90.25
68378;DHT22;55322;48.146;11.516;2022-08-19T05:24:24;18.29;90.28
68378;DHT22;55322;48.146;11.516;2022-08-19T05:26:52;18.31;90.60
68378;DHT22;55322;48.146;11.516;2022-08-19T05:29:22;18.30;89.74
68378;DHT22;55322;48.146;11.516;2022-08-19T05:31:48;18.23;90.00
68378;DHT22;55322;48.146;11.516;2022-08-19T05:34:15;18.27;89.92
68378;DHT22;55322;48.146;11.516;2022-08-19T05:36:42;18.33;90.20
68378;DHT22;55322;48.146;11.516;2022-08-19T05:39:14;18.34;89.83
68378;DHT22;55322;48.146;11.516;2022-08-19T05:41:42;18.34;89.57
68378;DHT22;55322;48.146;11.516;2022-08-19T05:44:07;18.29;90.17
68378;DHT22;55322;48.146;11.516;2022-08-19T05:46:34;18.27;90.50
68378;DHT22;55322;48.146;11.516;2022-08-19T05:49:00;18.33;90.73
68378;DHT22;55322;48.146;11.516;2022-08-19T05:51:26;18.30;90.13
68378;DHT22;55322;48.146;11.516;2022-08-19T05:53:51;18.37;90.35
68378;DHT22;55322;48.146;11.516;2022-08-19T05:56:17;18.40;89.84
68378;DHT22;55322;48.146;11.516;2022-08-19T05:58:44;18.36;89.29
68378;DHT22;55322;48.146;11.516;2022-08-19T06:01:13;18.34;90.03
68378;DHT22;55322;48.146;11.516;2022-08-19T06:03:39;18.34;90.37
68378;DHT22;55322;48.146;11.516;2022-08-19T06:06:05;18.34;90.34
68378;DHT22;55322;48.146;11.516;2022-08-19T06:08:32;18.33;89.88
68378;DHT22;55322;48.146;11.516;2022-08-19T06:11:12;18.37;90.60
68378;DHT22;55322;48.146;11.516;2022-08-19T06:13:37;18.40;90.46
68378;DHT22;55322;48.146;11.516;2022-08-19T06:16:03;18.40;90.07
68378;DHT22;55322;48.146;11.516;2022-08-19T06:18:29;18.41;90.80
68378;DHT22;55322;48.146;11.516;2022-08-19T06:20:54;18.43;90.41
68378;DHT22;55322;48.146;11.516;2022-08-19T06:23:20;18.44;90.00
68378;DHT22;55322;48.146;11.516;2022-08-19T06:25:46;18.48;90.06
68378;DHT22;55322;48.146;11.516;2022-08-19T06:28:12;18.51;89.79
68378;DHT22;55322;48.146;11.516;2022-08-19T06:30:37;18.53;90.05
68378;DHT22;55322;48.146;11.516;2022-08-19T06:33:03;18.51;90.47
68378;DHT22;55322;48.146;11.516;2022-08-19T06:35:29;18.54;90.93
68378;DHT22;55322;48.146;11.516;2022-08-19T06:37:55;18.55;90.40
68378;DHT22;55322;48.146;11.516;2022-08-19T06:40:20;18.45;91.30
68378;DHT22;55322;48.146;11.516;2022-08-19T06:42:46;18.43;91.15
68378;DHT22;55322;48.146;11.516;2022-08-19T06:45:11;18.47;91.22
68378;DHT22;55322;48.146;11.516;2022-08-19T06:47:36;18.44;91.56
68378;DHT22;55322;48.146;11.516;2022-08-19T06:50:02;18.47;91.60
68378;DHT22;55322;48.146;11.516;2022-08-19T06:52:37;18.48;91.68
68378;DHT22;55322;48.146;11.516;2022-08-19T06:55:05;18.50;91.44
68378;DHT22;55322;48.146;11.516;2022-08-19T06:57:30;18.53;91.97
68378;DHT22;55322;48.146;11.516;2022-08-19T06:59:57;18.54;91.93
68378;DHT22;55322;48.146;11.516;2022-08-19T07:02:25;18.50;91.77
68378;DHT22;55322;48.146;11.516;2022-08-19T07:04:52;18.54;91.64
68378;DHT22;55322;48.146;11.516;2022-08-19T07:07:17;18.51;92.06
68378;DHT22;55322;48.146;11.516;2022-08-19T07:09:44;18.48;92.09
68378;DHT22;55322;48.146;11.516;2022-08-19T07:12:12;18.44;92.40
68378;DHT22;55322;48.146;11.516;2022-08-19T07:14:39;18.37;92.42
68378;DHT22;55322;48.146;11.516;2022-08-19T07:17:07;18.30;92.87
68378;DHT22;55322;48.146;11.516;2022-08-19T07:19:33;18.31;93.28
68378;DHT22;55322;48.146;11.516;2022-08-19T07:22:02;18.31;93.28
68378;DHT22;55322;48.146;11.516;2022-08-19T07:24:28;18.31;93.17
68378;DHT22;55322;48.146;11.516;2022-08-19T07:26:56;18.38;93.11
68378;DHT22;55322;48.146;11.516;2022-08-19T07:29:26;18.54;92.90
68378;DHT22;55322;48.146;11.516;2022-08-19T07:31:52;18.69;93.40
68378;DHT22;55322;48.146;11.516;2022-08-19T07:34:18;18.81;92.31
68378;DHT22;55322;48.146;11.516;2022-08-19T07:36:44;18.96;91.77
68378;DHT22;55322;48.146;11.516;2022-08-19T07:39:16;19.02;91.73
68378;DHT22;55322;48.146;11.516;2022-08-19T07:41:41;19.25;91.58
68378;DHT22;55322;48.146;11.516;2022-08-19T07:44:08;19.35;90.51
68378;DHT22;55322;48.146;11.516;2022-08-19T07:46:36;19.22;90.29
68378;DHT22;55322;48.146;11.516;2022-08-19T07:49:03;19.09;90.10
68378;DHT22;55322;48.146;11.516;2022-08-19T07:51:29;18.89;90.28
68378;DHT22;55322;48.146;11.516;2022-08-19T07:53:54;18.83;90.83
68378;DHT22;55322;48.146;11.516;2022-08-19T07:56:21;18.76;91.09
68378;DHT22;55322;48.146;11.516;2022-08-19T07:58:49;18.72;91.63
68378;DHT22;55322;48.146;11.516;2022-08-19T08:01:18;18.81;92.03
68378;DHT22;55322;48.146;11.516;2022-08-19T08:03:44;18.81;91.52
68378;DHT22;55322;48.146;11.516;2022-08-19T08:06:28;18.79;91.22
68378;DHT22;55322;48.146;11.516;2022-08-19T08:09:13;18.83;91.62
68378;DHT22;55322;48.146;11.516;2022-08-19T08:11:51;18.85;91.78
68378;DHT22;55322;48.146;11.516;2022-08-19T08:14:27;18.87;91.91
68378;DHT22;55322;48.146;11.516;2022-08-19T08:16:53;18.87;91.73
68378;DHT22;55322;48.146;11.516;2022-08-19T08:19:20;18.87;91.98
68378;DHT22;55322;48.146;11.516;2022-08-19T08:21:47;18.85;91.56
68378;DHT22;55322;48.146;11.516;2022-08-19T08:24:13;18.76;91.61
68378;DHT22;55322;48.146;11.516;2022-08-19T08:26:39;18.75;91.03
68378;DHT22;55322;48.146;11.516;2022-08-19T08:29:04;18.79;90.83
68378;DHT22;55322;48.146;11.516;2022-08-19T08:31:32;18.79;91.35
68378;DHT22;55322;48.146;11.516;2022-08-19T08:33:59;18.71;91.95
68378;DHT22;55322;48.146;11.516;2022-08-19T08:36:24;18.71;92.19
68378;DHT22;55322;48.146;11.516;2022-08-19T08:38:50;18.68;92.04
68378;DHT22;55322;48.146;11.516;2022-08-19T08:41:34;18.72;92.74
68378;DHT22;55322;48.146;11.516;2022-08-19T08:44:03;18.75;92.21
68378;DHT22;55322;48.146;11.516;2022-08-19T08:46:35;18.74;91.83
68378;DHT22;55322;48.146;11.516;2022-08-19T08:52:04;18.65;92.15
68378;DHT22;55322;48.146;11.516;2022-08-19T08:54:35;18.65;92.08
68378;DHT22;55322;48.146;11.516;2022-08-19T08:57:04;18.67;92.10
68378;DHT22;55322;48.146;11.516;2022-08-19T08:59:36;18.58;92.17
68378;DHT22;55322;48.146;11.516;2022-08-19T09:02:04;18.54;92.72
68378;DHT22;55322;48.146;11.516;2022-08-19T09:04:29;18.60;92.71
68378;DHT22;55322;48.146;11.516;2022-08-19T09:09:57;18.67;93.13
68378;DHT22;55322;48.146;11.516;2022-08-19T09:12:45;18.72;93.35
68378;DHT22;55322;48.146;11.516;2022-08-19T09:15:14;18.76;93.43
68378;DHT22;55322;48.146;11.516;2022-08-19T09:17:41;18.76;93.40
68378;DHT22;55322;48.146;11.516;2022-08-19T09:22:35;18.81;93.50
68378;DHT22;55322;48.146;11.516;2022-08-19T09:25:02;18.81;93.11
68378;DHT22;55322;48.146;11.516;2022-08-19T09:27:29;18.88;93.31
68378;DHT22;55322;48.146;11.516;2022-08-19T09:29:54;18.87;93.62
68378;DHT22;55322;48.146;11.516;2022-08-19T09:32:21;19.04;94.22
68378;DHT22;55322;48.146;11.516;2022-08-19T09:34:46;19.12;94.26
68378;DHT22;55322;48.146;11.516;2022-08-19T09:37:12;19.16;93.55
68378;DHT22;55322;48.146;11.516;2022-08-19T09:39:39;19.12;92.93
68378;DHT22;55322;48.146;11.516;2022-08-19T09:42:06;19.19;93.25
68378;DHT22;55322;48.146;11.516;2022-08-19T09:44:36;19.18;92.43
68378;DHT22;55322;48.146;11.516;2022-08-19T09:47:02;19.16;92.57
68378;DHT22;55322;48.146;11.516;2022-08-19T09:49:29;19.20;92.71
68378;DHT22;55322;48.146;11.516;2022-08-19T09:51:54;19.29;92.63
68378;DHT22;55322;48.146;11.516;2022-08-19T09:54:21;19.30;92.33
68378;DHT22;55322;48.146;11.516;2022-08-19T09:56:46;19.45;92.42
68378;DHT22;55322;48.146;11.516;2022-08-19T09:59:12;19.42;91.64
68378;DHT22;55322;48.146;11.516;2022-08-19T10:01:38;19.53;92.32
68378;DHT22;55322;48.146;11.516;2022-08-19T10:04:03;19.60;92.18
68378;DHT22;55322;48.146;11.516;2022-08-19T10:06:37;19.62;92.06
68378;DHT22;55322;48.146;11.516;2022-08-19T10:09:04;19.62;92.21
68378;DHT22;55322;48.146;11.516;2022-08-19T10:11:32;19.52;91.44
68378;DHT22;55322;48.146;11.516;2022-08-19T10:13:57;19.48;91.50
68378;DHT22;55322;48.146;11.516;2022-08-19T10:16:23;19.48;91.54
68378;DHT22;55322;48.146;11.516;2022-08-19T10:18:49;19.60;91.78
68378;DHT22;55322;48.146;11.516;2022-08-19T10:21:20;19.81;92.07
68378;DHT22;55322;48.146;11.516;2022-08-19T10:23:48;20.01;91.26
68378;DHT22;55322;48.146;11.516;2022-08-19T10:26:16;20.44;91.45
68378;DHT22;55322;48.146;11.516;2022-08-19T10:28:42;20.81;89.77
68378;DHT22;55322;48.146;11.516;2022-08-19T10:31:11;21.28;89.37
68378;DHT22;55322;48.146;11.516;2022-08-19T10:33:38;21.80;85.24
68378;DHT22;55322;48.146;11.516;2022-08-19T10:36:14;22.13;86.76
68378;DHT22;55322;48.146;11.516;2022-08-19T10:38:40;22.52;84.91
68378;DHT22;55322;48.146;11.516;2022-08-19T10:41:14;22.73;82.00
68378;DHT22;55322;48.146;11.516;2022-08-19T10:43:41;22.45;83.84
68378;DHT22;55322;48.146;11.516;2022-08-19T10:46:11;22.54;83.01
68378;DHT22;55322;48.146;11.516;2022-08-19T10:48:37;23.23;83.63
68378;DHT22;55322;48.146;11.516;2022-08-19T10:51:03;23.29;81.56
68378;DHT22;55322;48.146;11.516;2022-08-19T10:53:48;22.82;81.20
68378;DHT22;55322;48.146;11.516;2022-08-19T10:56:13;22.64;80.74
68378;DHT22;55322;48.146;11.516;2022-08-19T10:58:58;22.45;81.56
68378;DHT22;55322;48.146;11.516;2022-08-19T11:01:25;22.25;81.99
68378;DHT22;55322;48.146;11.516;2022-08-19T11:03:50;22.41;84.20
68378;DHT22;55322;48.146;11.516;2022-08-19T11:06:16;21.96;84.25
68378;DHT22;55322;48.146;11.516;2022-08-19T11:08:41;21.83;83.21
68378;DHT22;55322;48.146;11.516;2022-08-19T11:11:07;21.56;84.53
68378;DHT22;55322;48.146;11.516;2022-08-19T11:13:35;21.12;86.15
68378;DHT22;55322;48.146;11.516;2022-08-19T11:16:08;20.94;86.41
68378;DHT22;55322;48.146;11.516;2022-08-19T11:18:40;20.86;86.62
68378;DHT22;55322;48.146;11.516;2022-08-19T11:21:14;20.85;87.22
68378;DHT22;55322;48.146;11.516;2022-08-19T11:23:42;21.12;86.84
68378;DHT22;55322;48.146;11.516;2022-08-19T11:26:08;21.32;86.77
68378;DHT22;55322;48.146;11.516;2022-08-19T11:28:34;21.40;85.39
68378;DHT22;55322;48.146;11.516;2022-08-19T11:30:59;21.73;83.12
68378;DHT22;55322;48.146;11.516;2022-08-19T11:33:24;22.32;83.84
68378;DHT22;55322;48.146;11.516;2022-08-19T11:35:51;22.73;81.45
68378;DHT22;55322;48.146;11.516;2022-08-19T11:38:17;22.88;81.53
68378;DHT22;55322;48.146;11.516;2022-08-19T11:40:43;22.65;81.13
68378;DHT22;55322;48.146;11.516;2022-08-19T11:43:09;23.12;81.18
68378;DHT22;55322;48.146;11.516;2022-08-19T11:45:35;23.05;78.54
68378;DHT22;55322;48.146;11.516;2022-08-19T11:48:01;22.84;80.69
68378;DHT22;55322;48.146;11.516;2022-08-19T11:50:27;22.81;80.12
68378;DHT22;55322;48.146;11.516;2022-08-19T11:52:56;22.85;80.13
68378;DHT22;55322;48.146;11.516;2022-08-19T11:55:22;22.48;79.41
68378;DHT22;55322;48.146;11.516;2022-08-19T11:57:47;22.31;80.05
68378;DHT22;55322;48.146;11.516;2022-08-19T12:00:13;21.86;81.04
68378;DHT22;55322;48.146;11.516;2022-08-19T12:02:39;21.53;82.77
68378;DHT22;55322;48.146;11.516;2022-08-19T12:05:05;21.43;83.39
68378;DHT22;55322;48.146;11.516;2022-08-19T12:07:31;21.36;82.75
68378;DHT22;55322;48.146;11.516;2022-08-19T12:09:59;21.10;83.94
68378;DHT22;55322;48.146;11.516;2022-08-19T12:12:25;21.06;84.41
68378;DHT22;55322;48.146;11.516;2022-08-19T12:14:51;20.96;85.07
68378;DHT22;55322;48.146;11.516;2022-08-19T12:17:23;20.79;84.79
68378;DHT22;55322;48.146;11.516;2022-08-19T12:19:48;20.76;84.19
68378;DHT22;55322;48.146;11.516;2022-08-19T12:22:13;20.81;84.06
68378;DHT22;55322;48.146;11.516;2022-08-19T12:24:39;20.95;84.13
68378;DHT22;55322;48.146;11.516;2022-08-19T12:27:04;21.12;83.46
68378;DHT22;55322;48.146;11.516;2022-08-19T12:29:29;21.32;83.92
68378;DHT22;55322;48.146;11.516;2022-08-19T12:31:56;21.57;83.04
68378;DHT22;55322;48.146;11.516;2022-08-19T12:34:30;21.71;82.17
68378;DHT22;55322;48.146;11.516;2022-08-19T12:36:58;21.80;80.79
68378;DHT22;55322;48.146;11.516;2022-08-19T12:39:24;21.69;81.72
68378;DHT22;55322;48.146;11.516;2022-08-19T12:41:50;21.79;82.15
68378;DHT22;55322;48.146;11.516;2022-08-19T12:44:16;21.98;81.10
68378;DHT22;55322;48.146;11.516;2022-08-19T12:46:41;22.15;78.99
68378;DHT22;55322;48.146;11.516;2022-08-19T12:49:07;22.40;78.64
68378;DHT22;55322;48.146;11.516;2022-08-19T12:51:32;22.59;77.84
68378;DHT22;55322;48.146;11.516;2022-08-19T12:53:57;22.35;78.73
68378;DHT22;55322;48.146;11.516;2022-08-19T12:56:23;22.31;78.12
68378;DHT22;55322;48.146;11.516;2022-08-19T12:58:48;22.22;77.36
68378;DHT22;55322;48.146;11.516;2022-08-19T13:01:16;22.32;77.29
68378;DHT22;55322;48.146;11.516;2022-08-19T13:03:42;22.47;77.32
68378;DHT22;55322;48.146;11.516;2022-08-19T13:06:08;22.54;77.06
68378;DHT22;55322;48.146;11.516;2022-08-19T13:08:34;22.59;75.83
68378;DHT22;55322;48.146;11.516;2022-08-19T13:11:07;22.81;77.96
68378;DHT22;55322;48.146;11.516;2022-08-19T13:13:32;23.15;77.14
68378;DHT22;55322;48.146;11.516;2022-08-19T13:16:00;23.16;75.30
68378;DHT22;55322;48.146;11.516;2022-08-19T13:18:27;23.36;74.42
68378;DHT22;55322;48.146;11.516;2022-08-19T13:20:53;23.29;76.00
68378;DHT22;55322;48.146;11.516;2022-08-19T13:23:18;23.67;74.86
68378;DHT22;55322;48.146;11.516;2022-08-19T13:25:44;23.73;76.12
68378;DHT22;55322;48.146;11.516;2022-08-19T13:28:09;23.85;73.15
68378;DHT22;55322;48.146;11.516;2022-08-19T13:30:34;23.84;74.63
68378;DHT22;55322;48.146;11.516;2022-08-19T13:33:19;23.53;73.33
68378;DHT22;55322;48.146;11.516;2022-08-19T13:35:56;22.71;75.64
68378;DHT22;55322;48.146;11.516;2022-08-19T13:38:23;22.58;77.61
68378;DHT22;55322;48.146;11.516;2022-08-19T13:40:51;22.76;76.37
68378;DHT22;55322;48.146;11.516;2022-08-19T13:43:19;23.19;76.98
68378;DHT22;55322;48.146;11.516;2022-08-19T13:45:45;22.86;75.68
68378;DHT22;55322;48.146;11.516;2022-08-19T13:48:11;22.24;77.00
68378;DHT22;55322;48.146;11.516;2022-08-19T13:50:44;21.96;77.75
68378;DHT22;55322;48.146;11.516;2022-08-19T13:53:10;21.63;78.74
68378;DHT22;55322;48.146;11.516;2022-08-19T13:55:40;21.61;80.15
68378;DHT22;55322;48.146;11.516;2022-08-19T13:58:06;21.46;80.95
68378;DHT22;55322;48.146;11.516;2022-08-19T14:00:36;21.40;80.51
68378;DHT22;55322;48.146;11.516;2022-08-19T14:03:03;21.57;79.61
68378;DHT22;55322;48.146;11.516;2022-08-19T14:05:29;21.53;79.51
68378;DHT22;55322;48.146;11.516;2022-08-19T14:07:55;22.01;79.88
68378;DHT22;55322;48.146;11.516;2022-08-19T14:10:21;22.34;77.99
68378;DHT22;55322;48.146;11.516;2022-08-19T14:12:48;22.41;77.04
68378;DHT22;55322;48.146;11.516;2022-08-19T14:15:15;22.48;78.10
68378;DHT22;55322;48.146;11.516;2022-08-19T14:17:43;22.51;78.27
68378;DHT22;55322;48.146;11.516;2022-08-19T14:20:11;22.34;76.28
68378;DHT22;55322;48.146;11.516;2022-08-19T14:22:39;22.25;76.27
68378;DHT22;55322;48.146;11.516;2022-08-19T14:25:07;22.17;77.41
68378;DHT22;55322;48.146;11.516;2022-08-19T14:27:34;22.18;78.95
68378;DHT22;55322;48.146;11.516;2022-08-19T14:30:00;22.32;78.41
68378;DHT22;55322;48.146;11.516;2022-08-19T14:32:25;22.00;77.59
68378;DHT22;55322;48.146;11.516;2022-08-19T14:34:51;21.89;78.14
68378;DHT22;55322;48.146;11.516;2022-08-19T14:37:17;21.91;78.90
68378;DHT22;55322;48.146;11.516;2022-08-19T14:39:43;21.93;78.61
68378;DHT22;55322;48.146;11.516;2022-08-19T14:42:10;21.79;79.50
68378;DHT22;55322;48.146;11.516;2022-08-19T14:44:36;21.74;80.18
68378;DHT22;55322;48.146;11.516;2022-08-19T14:47:02;21.64;78.97
68378;DHT22;55322;48.146;11.516;2022-08-19T14:49:28;21.61;79.65
68378;DHT22;55322;48.146;11.516;2022-08-19T14:51:53;21.46;79.58
68378;DHT22;55322;48.146;11.516;2022-08-19T14:54:19;21.60;79.54
68378;DHT22;55322;48.146;11.516;2022-08-19T14:56:45;21.73;78.52
68378;DHT22;55322;48.146;11.516;2022-08-19T14:59:10;21.70;78.19
68378;DHT22;55322;48.146;11.516;2022-08-19T15:01:36;21.60;78.61
68378;DHT22;55322;48.146;11.516;2022-08-19T15:04:01;21.73;78.09
68378;DHT22;55322;48.146;11.516;2022-08-19T15:06:26;21.80;77.97
68378;DHT22;55322;48.146;11.516;2022-08-19T15:08:52;21.67;78.72
68378;DHT22;55322;48.146;11.516;2022-08-19T15:11:21;21.53;78.75
68378;DHT22;55322;48.146;11.516;2022-08-19T15:13:46;21.54;78.59
68378;DHT22;55322;48.146;11.516;2022-08-19T15:16:13;21.53;79.26
68378;DHT22;55322;48.146;11.516;2022-08-19T15:18:40;21.36;79.23
68378;DHT22;55322;48.146;11.516;2022-08-19T15:21:09;21.28;79.75
68378;DHT22;55322;48.146;11.516;2022-08-19T15:23:34;21.06;82.51
68378;DHT22;55322;48.146;11.516;2022-08-19T15:26:00;20.81;86.25
68378;DHT22;55322;48.146;11.516;2022-08-19T15:28:26;20.54;87.58
68378;DHT22;55322;48.146;11.516;2022-08-19T15:30:52;19.83;88.56
68378;DHT22;55322;48.146;11.516;2022-08-19T15:33:18;19.39;88.94